sensor_id;sensor_type;location;lat;lon;timestamp;temperature;humidity
75466;HTU21D;64049;46.290;44.240;2022-11-15T00:04:45;0.82;57.61
75466;HTU21D;64049;46.290;44.240;2022-11-15T00:07:30;0.80;57.77
75466;HTU21D;64049;46.290;44.240;2022-11-15T00:14:01;0.76;57.99
75466;HTU21D;64049;46.290;44.240;2022-11-15T00:16:48;0.75;58.00
75466;HTU21D;64049;46.290;44.240;2022-11-15T00:19:33;0.75;58.07
75466;HTU21D;64049;46.290;44.240;2022-11-15T00:22:17;0.74;58.21
75466;HTU21D;64049;46.290;44.240;2022-11-15T00:25:02;0.74;58.35
75466;HTU21D;64049;46.290;44.240;2022-11-15T00:27:47;0.73;58.52
75466;HTU21D;64049;46.290;44.240;2022-11-15T00:34:19;0.68;58.85
75466;HTU21D;64049;46.290;44.240;2022-11-15T00:37:04;0.68;58.91
75466;HTU21D;64049;46.290;44.240;2022-11-15T00:43:08;0.66;58.95
75466;HTU21D;64049;46.290;44.240;2022-11-15T00:45:52;0.65;59.14
75466;HTU21D;64049;46.290;44.240;2022-11-15T00:48:37;0.63;59.29
75466;HTU21D;64049;46.290;44.240;2022-11-15T00:51:57;0.64;59.30
75466;HTU21D;64049;46.290;44.240;2022-11-15T00:54:41;0.63;59.23
75466;HTU21D;64049;46.290;44.240;2022-11-15T00:57:26;0.57;59.32
75466;HTU21D;64049;46.290;44.240;2022-11-15T01:04:04;0.54;59.51
75466;HTU21D;64049;46.290;44.240;2022-11-15T01:06:48;0.54;59.61
75466;HTU21D;64049;46.290;44.240;2022-11-15T01:09:59;0.54;59.76
75466;HTU21D;64049;46.290;44.240;2022-11-15T01:12:44;0.53;59.70
75466;HTU21D;64049;46.290;44.240;2022-11-15T01:15:28;0.54;59.25
75466;HTU21D;64049;46.290;44.240;2022-11-15T01:18:13;0.54;59.32
75466;HTU21D;64049;46.290;44.240;2022-11-15T01:25:06;0.50;59.55
75466;HTU21D;64049;46.290;44.240;2022-11-15T01:34:40;0.44;59.49
75466;HTU21D;64049;46.290;44.240;2022-11-15T01:37:25;0.44;59.54
75466;HTU21D;64049;46.290;44.240;2022-11-15T01:47:53;0.39;59.49
75466;HTU21D;64049;46.290;44.240;2022-11-15T01:50:41;0.38;59.49
75466;HTU21D;64049;46.290;44.240;2022-11-15T01:53:26;0.37;59.57
75466;HTU21D;64049;46.290;44.240;2022-11-15T01:56:15;0.36;59.73
75466;HTU21D;64049;46.290;44.240;2022-11-15T01:59:05;0.36;59.51
75466;HTU21D;64049;46.290;44.240;2022-11-15T02:02:26;0.35;59.61
75466;HTU21D;64049;46.290;44.240;2022-11-15T02:05:11;0.35;59.71
75466;HTU21D;64049;46.290;44.240;2022-11-15T02:07:56;0.34;59.41
75466;HTU21D;64049;46.290;44.240;2022-11-15T02:10:45;0.35;59.48
75466;HTU21D;64049;46.290;44.240;2022-11-15T02:13:30;0.33;59.47
75466;HTU21D;64049;46.290;44.240;2022-11-15T02:35:33;0.29;59.80
75466;HTU21D;64049;46.290;44.240;2022-11-15T02:45:28;0.27;59.99
75466;HTU21D;64049;46.290;44.240;2022-11-15T02:48:15;0.24;59.84
75466;HTU21D;64049;46.290;44.240;2022-11-15T02:54:56;0.24;59.78
75466;HTU21D;64049;46.290;44.240;2022-11-15T02:57:55;0.23;59.90
75466;HTU21D;64049;46.290;44.240;2022-11-15T03:08:17;0.20;60.05
75466;HTU21D;64049;46.290;44.240;2022-11-15T03:15:16;0.15;60.18
75466;HTU21D;64049;46.290;44.240;2022-11-15T03:18:06;0.15;60.14
75466;HTU21D;64049;46.290;44.240;2022-11-15T03:21:05;0.16;60.13
75466;HTU21D;64049;46.290;44.240;2022-11-15T03:23:52;0.17;60.10
75466;HTU21D;64049;46.290;44.240;2022-11-15T03:26:40;0.16;60.05
75466;HTU21D;64049;46.290;44.240;2022-11-15T03:29:39;0.17;60.06
75466;HTU21D;64049;46.290;44.240;2022-11-15T03:32:28;0.17;59.88
75466;HTU21D;64049;46.290;44.240;2022-11-15T03:35:17;0.17;60.02
75466;HTU21D;64049;46.290;44.240;2022-11-15T03:38:19;0.16;60.20
75466;HTU21D;64049;46.290;44.240;2022-11-15T03:41:22;0.15;60.15
75466;HTU21D;64049;46.290;44.240;2022-11-15T03:47:27;0.15;59.51
75466;HTU21D;64049;46.290;44.240;2022-11-15T03:53:45;0.16;59.70
75466;HTU21D;64049;46.290;44.240;2022-11-15T03:56:30;0.14;59.81
75466;HTU21D;64049;46.290;44.240;2022-11-15T03:59:14;0.13;60.02
75466;HTU21D;64049;46.290;44.240;2022-11-15T04:01:59;0.12;60.26
75466;HTU21D;64049;46.290;44.240;2022-11-15T04:04:43;0.12;60.42
75466;HTU21D;64049;46.290;44.240;2022-11-15T04:07:27;0.10;60.51
75466;HTU21D;64049;46.290;44.240;2022-11-15T04:14:00;0.10;60.77
75466;HTU21D;64049;46.290;44.240;2022-11-15T04:16:44;0.08;60.93
75466;HTU21D;64049;46.290;44.240;2022-11-15T04:19:50;0.08;61.10
75466;HTU21D;64049;46.290;44.240;2022-11-15T04:22:55;0.09;60.98
75466;HTU21D;64049;46.290;44.240;2022-11-15T04:26:01;0.09;61.02
75466;HTU21D;64049;46.290;44.240;2022-11-15T04:28:46;0.10;60.97
75466;HTU21D;64049;46.290;44.240;2022-11-15T04:35:18;0.10;61.40
75466;HTU21D;64049;46.290;44.240;2022-11-15T04:38:05;0.12;61.54
75466;HTU21D;64049;46.290;44.240;2022-11-15T04:44:31;0.17;60.85
75466;HTU21D;64049;46.290;44.240;2022-11-15T04:47:15;0.18;60.73
75466;HTU21D;64049;46.290;44.240;2022-11-15T04:53:25;0.22;60.86
75466;HTU21D;64049;46.290;44.240;2022-11-15T04:56:09;0.24;61.02
75466;HTU21D;64049;46.290;44.240;2022-11-15T04:58:54;0.28;61.21
75466;HTU21D;64049;46.290;44.240;2022-11-15T05:02:00;0.30;61.22
75466;HTU21D;64049;46.290;44.240;2022-11-15T05:04:44;0.32;60.92
75466;HTU21D;64049;46.290;44.240;2022-11-15T05:07:29;0.34;60.84
75466;HTU21D;64049;46.290;44.240;2022-11-15T05:10:35;0.37;60.72
75466;HTU21D;64049;46.290;44.240;2022-11-15T05:13:19;0.39;60.57
75466;HTU21D;64049;46.290;44.240;2022-11-15T05:16:04;0.42;60.04
75466;HTU21D;64049;46.290;44.240;2022-11-15T05:18:52;0.44;59.70
75466;HTU21D;64049;46.290;44.240;2022-11-15T05:21:38;0.47;59.52
75466;HTU21D;64049;46.290;44.240;2022-11-15T05:24:22;0.49;59.01
75466;HTU21D;64049;46.290;44.240;2022-11-15T05:27:07;0.51;58.16
75466;HTU21D;64049;46.290;44.240;2022-11-15T05:29:51;0.54;58.51
75466;HTU21D;64049;46.290;44.240;2022-11-15T05:32:36;0.58;58.14
75466;HTU21D;64049;46.290;44.240;2022-11-15T05:35:38;0.57;58.02
75466;HTU21D;64049;46.290;44.240;2022-11-15T05:38:23;0.59;57.96
75466;HTU21D;64049;46.290;44.240;2022-11-15T05:41:07;0.61;56.76
75466;HTU21D;64049;46.290;44.240;2022-11-15T05:43:53;0.74;56.93
75466;HTU21D;64049;46.290;44.240;2022-11-15T05:46:39;0.93;55.65
75466;HTU21D;64049;46.290;44.240;2022-11-15T05:49:29;1.17;54.46
75466;HTU21D;64049;46.290;44.240;2022-11-15T05:52:16;1.28;53.37
75466;HTU21D;64049;46.290;44.240;2022-11-15T05:55:03;1.42;52.62
75466;HTU21D;64049;46.290;44.240;2022-11-15T05:57:48;1.54;52.31
75466;HTU21D;64049;46.290;44.240;2022-11-15T06:00:36;1.81;52.10
75466;HTU21D;64049;46.290;44.240;2022-11-15T06:03:21;1.81;51.21
75466;HTU21D;64049;46.290;44.240;2022-11-15T06:06:05;1.60;51.09
75466;HTU21D;64049;46.290;44.240;2022-11-15T06:08:50;1.39;51.66
75466;HTU21D;64049;46.290;44.240;2022-11-15T06:11:34;1.32;51.24
75466;HTU21D;64049;46.290;44.240;2022-11-15T06:14:45;1.16;51.18
75466;HTU21D;64049;46.290;44.240;2022-11-15T06:17:29;1.04;51.01
75466;HTU21D;64049;46.290;44.240;2022-11-15T06:23:34;0.92;51.07
75466;HTU21D;64049;46.290;44.240;2022-11-15T06:26:19;0.90;51.12
75466;HTU21D;64049;46.290;44.240;2022-11-15T06:29:04;0.92;51.38
75466;HTU21D;64049;46.290;44.240;2022-11-15T06:31:51;0.88;50.82
75466;HTU21D;64049;46.290;44.240;2022-11-15T06:34:37;0.88;50.70
75466;HTU21D;64049;46.290;44.240;2022-11-15T06:37:21;0.92;50.32
75466;HTU21D;64049;46.290;44.240;2022-11-15T06:43:32;0.99;50.11
75466;HTU21D;64049;46.290;44.240;2022-11-15T06:46:16;1.09;50.27
75466;HTU21D;64049;46.290;44.240;2022-11-15T06:49:01;0.97;49.38
75466;HTU21D;64049;46.290;44.240;2022-11-15T06:55:57;0.64;49.89
75466;HTU21D;64049;46.290;44.240;2022-11-15T06:58:42;0.64;50.03
75466;HTU21D;64049;46.290;44.240;2022-11-15T07:05:27;0.79;49.76
75466;HTU21D;64049;46.290;44.240;2022-11-15T07:08:12;0.83;49.89
75466;HTU21D;64049;46.290;44.240;2022-11-15T07:14:11;1.29;48.92
75466;HTU21D;64049;46.290;44.240;2022-11-15T07:16:56;1.32;48.45
75466;HTU21D;64049;46.290;44.240;2022-11-15T07:23:17;1.08;48.54
75466;HTU21D;64049;46.290;44.240;2022-11-15T07:26:01;1.05;48.94
75466;HTU21D;64049;46.290;44.240;2022-11-15T07:28:46;1.19;48.96
75466;HTU21D;64049;46.290;44.240;2022-11-15T07:31:30;1.34;48.54
75466;HTU21D;64049;46.290;44.240;2022-11-15T07:34:15;1.24;47.99
75466;HTU21D;64049;46.290;44.240;2022-11-15T07:36:59;1.38;48.17
75466;HTU21D;64049;46.290;44.240;2022-11-15T07:39:43;1.58;47.86
75466;HTU21D;64049;46.290;44.240;2022-11-15T07:42:31;1.54;47.39
75466;HTU21D;64049;46.290;44.240;2022-11-15T07:45:40;1.34;47.85
75466;HTU21D;64049;46.290;44.240;2022-11-15T07:48:25;1.32;47.91
75466;HTU21D;64049;46.290;44.240;2022-11-15T07:51:14;1.38;48.41
75466;HTU21D;64049;46.290;44.240;2022-11-15T07:53:58;1.54;48.03
75466;HTU21D;64049;46.290;44.240;2022-11-15T07:56:43;1.66;47.38
75466;HTU21D;64049;46.290;44.240;2022-11-15T07:59:27;1.75;47.64
75466;HTU21D;64049;46.290;44.240;2022-11-15T08:02:12;1.77;47.50
75466;HTU21D;64049;46.290;44.240;2022-11-15T08:04:56;1.63;47.82
75466;HTU21D;64049;46.290;44.240;2022-11-15T08:07:41;1.77;47.45
75466;HTU21D;64049;46.290;44.240;2022-11-15T08:10:26;1.81;47.42
75466;HTU21D;64049;46.290;44.240;2022-11-15T08:13:12;1.69;46.89
75466;HTU21D;64049;46.290;44.240;2022-11-15T08:16:01;1.63;47.00
75466;HTU21D;64049;46.290;44.240;2022-11-15T08:18:46;1.82;47.09
75466;HTU21D;64049;46.290;44.240;2022-11-15T08:21:30;1.93;46.73
75466;HTU21D;64049;46.290;44.240;2022-11-15T08:24:16;1.85;46.75
75466;HTU21D;64049;46.290;44.240;2022-11-15T08:27:00;1.68;47.16
75466;HTU21D;64049;46.290;44.240;2022-11-15T08:29:45;1.83;47.60
75466;HTU21D;64049;46.290;44.240;2022-11-15T08:32:31;2.11;47.80
75466;HTU21D;64049;46.290;44.240;2022-11-15T08:35:16;2.34;47.37
75466;HTU21D;64049;46.290;44.240;2022-11-15T08:38:00;2.19;46.97
75466;HTU21D;64049;46.290;44.240;2022-11-15T08:40:45;2.23;46.96
75466;HTU21D;64049;46.290;44.240;2022-11-15T08:43:30;2.15;46.95
75466;HTU21D;64049;46.290;44.240;2022-11-15T08:46:14;2.10;47.70
75466;HTU21D;64049;46.290;44.240;2022-11-15T08:48:59;2.21;46.88
75466;HTU21D;64049;46.290;44.240;2022-11-15T08:51:44;2.22;46.29
75466;HTU21D;64049;46.290;44.240;2022-11-15T08:54:28;2.21;46.07
75466;HTU21D;64049;46.290;44.240;2022-11-15T08:57:13;2.32;45.97
75466;HTU21D;64049;46.290;44.240;2022-11-15T08:59:58;2.41;46.25
75466;HTU21D;64049;46.290;44.240;2022-11-15T09:02:43;2.55;45.83
75466;HTU21D;64049;46.290;44.240;2022-11-15T09:05:27;2.53;44.87
75466;HTU21D;64049;46.290;44.240;2022-11-15T09:08:12;2.32;45.38
75466;HTU21D;64049;46.290;44.240;2022-11-15T09:10:57;2.31;45.86
75466;HTU21D;64049;46.290;44.240;2022-11-15T09:13:41;2.37;46.28
75466;HTU21D;64049;46.290;44.240;2022-11-15T09:16:25;2.53;46.22
75466;HTU21D;64049;46.290;44.240;2022-11-15T09:19:10;2.55;45.41
75466;HTU21D;64049;46.290;44.240;2022-11-15T09:21:55;2.42;45.61
75466;HTU21D;64049;46.290;44.240;2022-11-15T09:24:39;2.42;45.36
75466;HTU21D;64049;46.290;44.240;2022-11-15T09:27:28;2.37;45.02
75466;HTU21D;64049;46.290;44.240;2022-11-15T09:30:12;2.35;45.48
75466;HTU21D;64049;46.290;44.240;2022-11-15T09:32:57;2.11;46.47
75466;HTU21D;64049;46.290;44.240;2022-11-15T09:35:41;2.23;45.94
75466;HTU21D;64049;46.290;44.240;2022-11-15T09:38:26;2.35;45.87
75466;HTU21D;64049;46.290;44.240;2022-11-15T09:50:41;2.54;44.77
75466;HTU21D;64049;46.290;44.240;2022-11-15T09:53:14;2.56;44.39
75466;HTU21D;64049;46.290;44.240;2022-11-15T09:56:14;2.58;44.13
75466;HTU21D;64049;46.290;44.240;2022-11-15T09:59:04;2.64;43.86
75466;HTU21D;64049;46.290;44.240;2022-11-15T10:04:36;2.56;44.24
75466;HTU21D;64049;46.290;44.240;2022-11-15T10:07:23;2.62;43.71
75466;HTU21D;64049;46.290;44.240;2022-11-15T10:10:03;2.60;43.16
75466;HTU21D;64049;46.290;44.240;2022-11-15T10:12:31;2.62;43.93
75466;HTU21D;64049;46.290;44.240;2022-11-15T10:15:09;2.69;42.90
75466;HTU21D;64049;46.290;44.240;2022-11-15T10:17:49;2.64;43.10
75466;HTU21D;64049;46.290;44.240;2022-11-15T10:20:21;2.65;43.01
75466;HTU21D;64049;46.290;44.240;2022-11-15T10:22:56;2.65;43.44
75466;HTU21D;64049;46.290;44.240;2022-11-15T10:25:24;2.78;43.49
75466;HTU21D;64049;46.290;44.240;2022-11-15T10:27:56;2.83;42.10
75466;HTU21D;64049;46.290;44.240;2022-11-15T10:30:32;2.75;42.31
75466;HTU21D;64049;46.290;44.240;2022-11-15T10:33:26;2.70;42.35
75466;HTU21D;64049;46.290;44.240;2022-11-15T10:44:18;2.68;42.19
75466;HTU21D;64049;46.290;44.240;2022-11-15T10:47:04;2.68;42.00
75466;HTU21D;64049;46.290;44.240;2022-11-15T10:49:32;2.68;42.26
75466;HTU21D;64049;46.290;44.240;2022-11-15T10:52:01;2.82;43.03
75466;HTU21D;64049;46.290;44.240;2022-11-15T10:56:58;2.86;41.97
75466;HTU21D;64049;46.290;44.240;2022-11-15T10:59:28;2.78;42.27
75466;HTU21D;64049;46.290;44.240;2022-11-15T11:01:55;2.76;42.85
75466;HTU21D;64049;46.290;44.240;2022-11-15T11:04:21;2.80;42.79
75466;HTU21D;64049;46.290;44.240;2022-11-15T11:06:51;2.84;43.18
75466;HTU21D;64049;46.290;44.240;2022-11-15T11:09:35;2.89;42.45
75466;HTU21D;64049;46.290;44.240;2022-11-15T11:12:03;2.83;42.77
75466;HTU21D;64049;46.290;44.240;2022-11-15T11:14:34;2.87;42.53
75466;HTU21D;64049;46.290;44.240;2022-11-15T11:20:30;2.87;42.11
75466;HTU21D;64049;46.290;44.240;2022-11-15T11:26:15;2.91;42.27
75466;HTU21D;64049;46.290;44.240;2022-11-15T11:31:54;2.95;42.07
75466;HTU21D;64049;46.290;44.240;2022-11-15T11:34:41;2.95;42.13
75466;HTU21D;64049;46.290;44.240;2022-11-15T11:47:40;3.00;41.73
75466;HTU21D;64049;46.290;44.240;2022-11-15T11:50:21;3.05;41.78
75466;HTU21D;64049;46.290;44.240;2022-11-15T11:53:04;3.00;42.17
75466;HTU21D;64049;46.290;44.240;2022-11-15T11:55:36;2.91;42.24
75466;HTU21D;64049;46.290;44.240;2022-11-15T12:00:43;2.99;42.32
75466;HTU21D;64049;46.290;44.240;2022-11-15T12:03:41;2.86;42.25
75466;HTU21D;64049;46.290;44.240;2022-11-15T12:09:38;2.86;43.40
75466;HTU21D;64049;46.290;44.240;2022-11-15T12:14:51;3.44;42.09
75466;HTU21D;64049;46.290;44.240;2022-11-15T12:17:26;3.78;41.45
75466;HTU21D;64049;46.290;44.240;2022-11-15T12:20:16;4.09;40.14
75466;HTU21D;64049;46.290;44.240;2022-11-15T12:25:50;4.38;39.37
75466;HTU21D;64049;46.290;44.240;2022-11-15T12:28:19;4.44;39.61
75466;HTU21D;64049;46.290;44.240;2022-11-15T12:30:50;4.41;39.49
75466;HTU21D;64049;46.290;44.240;2022-11-15T12:33:38;4.49;39.84
75466;HTU21D;64049;46.290;44.240;2022-11-15T12:36:09;4.57;39.34
75466;HTU21D;64049;46.290;44.240;2022-11-15T12:38:58;4.51;39.60
75466;HTU21D;64049;46.290;44.240;2022-11-15T12:41:31;4.35;39.65
75466;HTU21D;64049;46.290;44.240;2022-11-15T12:43:58;4.44;39.92
75466;HTU21D;64049;46.290;44.240;2022-11-15T12:49:01;4.48;39.76
75466;HTU21D;64049;46.290;44.240;2022-11-15T13:04:53;3.75;41.54
75466;HTU21D;64049;46.290;44.240;2022-11-15T13:10:07;2.72;43.28
75466;HTU21D;64049;46.290;44.240;2022-11-15T13:17:49;1.40;46.53
75466;HTU21D;64049;46.290;44.240;2022-11-15T13:30:50;0.37;49.41
75466;HTU21D;64049;46.290;44.240;2022-11-15T13:33:25;0.21;49.92
75466;HTU21D;64049;46.290;44.240;2022-11-15T13:35:57;0.12;50.22
75466;HTU21D;64049;46.290;44.240;2022-11-15T13:40:50;-0.12;51.21
75466;HTU21D;64049;46.290;44.240;2022-11-15T13:43:26;-0.25;51.22
75466;HTU21D;64049;46.290;44.240;2022-11-15T13:46:16;-0.43;51.72
75466;HTU21D;64049;46.290;44.240;2022-11-15T13:48:44;-0.51;52.05
75466;HTU21D;64049;46.290;44.240;2022-11-15T13:56:40;-0.74;52.85
75466;HTU21D;64049;46.290;44.240;2022-11-15T13:59:28;-0.81;52.99
75466;HTU21D;64049;46.290;44.240;2022-11-15T14:01:57;-0.89;53.01
75466;HTU21D;64049;46.290;44.240;2022-11-15T14:04:25;-1.01;53.30
75466;HTU21D;64049;46.290;44.240;2022-11-15T14:06:59;-1.04;53.57
75466;HTU21D;64049;46.290;44.240;2022-11-15T14:09:37;-1.14;53.86
75466;HTU21D;64049;46.290;44.240;2022-11-15T14:12:28;-1.24;54.07
75466;HTU21D;64049;46.290;44.240;2022-11-15T14:14:56;-1.36;54.03
75466;HTU21D;64049;46.290;44.240;2022-11-15T14:19:57;-1.64;54.40
75466;HTU21D;64049;46.290;44.240;2022-11-15T14:22:28;-1.74;54.59
75466;HTU21D;64049;46.290;44.240;2022-11-15T14:27:41;-1.82;55.11
75466;HTU21D;64049;46.290;44.240;2022-11-15T14:30:13;-1.78;55.19
75466;HTU21D;64049;46.290;44.240;2022-11-15T14:32:46;-1.80;55.20
75466;HTU21D;64049;46.290;44.240;2022-11-15T14:35:20;-1.92;55.24
75466;HTU21D;64049;46.290;44.240;2022-11-15T14:37:47;-1.95;55.65
75466;HTU21D;64049;46.290;44.240;2022-11-15T14:40:21;-2.00;55.74
75466;HTU21D;64049;46.290;44.240;2022-11-15T14:42:49;-2.05;55.98
75466;HTU21D;64049;46.290;44.240;2022-11-15T14:45:20;-2.09;56.12
75466;HTU21D;64049;46.290;44.240;2022-11-15T14:47:46;-2.12;56.43
75466;HTU21D;64049;46.290;44.240;2022-11-15T14:50:19;-2.10;56.45
75466;HTU21D;64049;46.290;44.240;2022-11-15T14:52:45;-2.17;56.51
75466;HTU21D;64049;46.290;44.240;2022-11-15T14:55:24;-2.30;56.39
75466;HTU21D;64049;46.290;44.240;2022-11-15T14:57:51;-2.45;56.35
75466;HTU21D;64049;46.290;44.240;2022-11-15T15:00:20;-2.60;56.44
75466;HTU21D;64049;46.290;44.240;2022-11-15T15:02:48;-2.76;56.54
75466;HTU21D;64049;46.290;44.240;2022-11-15T15:05:23;-2.88;56.78
75466;HTU21D;64049;46.290;44.240;2022-11-15T15:07:51;-2.93;56.77
75466;HTU21D;64049;46.290;44.240;2022-11-15T15:10:18;-3.00;56.81
75466;HTU21D;64049;46.290;44.240;2022-11-15T15:12:45;-3.04;56.80
75466;HTU21D;64049;46.290;44.240;2022-11-15T15:15:25;-3.09;56.85
75466;HTU21D;64049;46.290;44.240;2022-11-15T15:17:52;-3.13;56.83
75466;HTU21D;64049;46.290;44.240;2022-11-15T15:20:18;-3.16;56.95
75466;HTU21D;64049;46.290;44.240;2022-11-15T15:22:44;-3.18;56.96
75466;HTU21D;64049;46.290;44.240;2022-11-15T15:27:48;-3.05;57.90
75466;HTU21D;64049;46.290;44.240;2022-11-15T15:30:15;-2.93;57.82
75466;HTU21D;64049;46.290;44.240;2022-11-15T15:32:41;-2.87;57.80
75466;HTU21D;64049;46.290;44.240;2022-11-15T15:35:07;-2.95;57.46
75466;HTU21D;64049;46.290;44.240;2022-11-15T15:37:36;-3.03;57.35
75466;HTU21D;64049;46.290;44.240;2022-11-15T15:40:02;-3.16;57.32
75466;HTU21D;64049;46.290;44.240;2022-11-15T15:42:28;-3.20;57.48
75466;HTU21D;64049;46.290;44.240;2022-11-15T15:44:54;-3.27;57.64
75466;HTU21D;64049;46.290;44.240;2022-11-15T15:47:21;-3.18;57.99
75466;HTU21D;64049;46.290;44.240;2022-11-15T15:49:49;-3.18;58.08
75466;HTU21D;64049;46.290;44.240;2022-11-15T15:52:16;-3.17;57.97
75466;HTU21D;64049;46.290;44.240;2022-11-15T15:54:42;-3.16;57.81
75466;HTU21D;64049;46.290;44.240;2022-11-15T15:57:11;-3.18;57.77
75466;HTU21D;64049;46.290;44.240;2022-11-15T15:59:37;-3.20;58.07
75466;HTU21D;64049;46.290;44.240;2022-11-15T16:02:04;-3.19;58.26
75466;HTU21D;64049;46.290;44.240;2022-11-15T16:04:30;-3.17;58.10
75466;HTU21D;64049;46.290;44.240;2022-11-15T16:07:00;-3.20;57.93
75466;HTU21D;64049;46.290;44.240;2022-11-15T16:09:26;-3.22;58.00
75466;HTU21D;64049;46.290;44.240;2022-11-15T16:12:10;-3.25;58.32
75466;HTU21D;64049;46.290;44.240;2022-11-15T16:14:36;-3.20;58.54
75466;HTU21D;64049;46.290;44.240;2022-11-15T16:17:02;-3.09;58.82
75466;HTU21D;64049;46.290;44.240;2022-11-15T16:19:28;-3.03;58.52
75466;HTU21D;64049;46.290;44.240;2022-11-15T16:21:54;-3.12;58.26
75466;HTU21D;64049;46.290;44.240;2022-11-15T16:24:21;-3.24;58.39
75466;HTU21D;64049;46.290;44.240;2022-11-15T16:26:48;-3.25;58.63
75466;HTU21D;64049;46.290;44.240;2022-11-15T16:29:15;-3.19;59.06
75466;HTU21D;64049;46.290;44.240;2022-11-15T16:31:41;-3.04;59.32
75466;HTU21D;64049;46.290;44.240;2022-11-15T16:34:06;-2.97;59.07
75466;HTU21D;64049;46.290;44.240;2022-11-15T16:36:33;-2.98;59.07
75466;HTU21D;64049;46.290;44.240;2022-11-15T16:39:00;-3.01;59.13
75466;HTU21D;64049;46.290;44.240;2022-11-15T16:41:29;-3.01;59.16
75466;HTU21D;64049;46.290;44.240;2022-11-15T16:43:55;-3.06;59.11
75466;HTU21D;64049;46.290;44.240;2022-11-15T16:46:24;-3.10;59.37
75466;HTU21D;64049;46.290;44.240;2022-11-15T16:48:50;-3.22;59.13
75466;HTU21D;64049;46.290;44.240;2022-11-15T16:51:17;-3.37;59.19
75466;HTU21D;64049;46.290;44.240;2022-11-15T16:53:43;-3.52;59.28
75466;HTU21D;64049;46.290;44.240;2022-11-15T16:58:43;-3.76;59.42
75466;HTU21D;64049;46.290;44.240;2022-11-15T17:01:18;-3.85;59.51
75466;HTU21D;64049;46.290;44.240;2022-11-15T17:03:44;-3.95;59.44
75466;HTU21D;64049;46.290;44.240;2022-11-15T17:06:12;-4.05;59.43
75466;HTU21D;64049;46.290;44.240;2022-11-15T17:08:38;-4.13;59.39
75466;HTU21D;64049;46.290;44.240;2022-11-15T17:11:05;-4.22;59.44
75466;HTU21D;64049;46.290;44.240;2022-11-15T17:13:31;-4.29;59.43
75466;HTU21D;64049;46.290;44.240;2022-11-15T17:16:13;-4.29;60.04
75466;HTU21D;64049;46.290;44.240;2022-11-15T17:18:40;-4.23;59.81
75466;HTU21D;64049;46.290;44.240;2022-11-15T17:21:16;-4.25;59.86
75466;HTU21D;64049;46.290;44.240;2022-11-15T17:23:42;-4.17;60.33
75466;HTU21D;64049;46.290;44.240;2022-11-15T17:26:09;-4.22;59.97
75466;HTU21D;64049;46.290;44.240;2022-11-15T17:28:37;-4.31;59.81
75466;HTU21D;64049;46.290;44.240;2022-11-15T17:31:06;-4.43;59.86
75466;HTU21D;64049;46.290;44.240;2022-11-15T17:33:33;-4.49;59.92
75466;HTU21D;64049;46.290;44.240;2022-11-15T17:36:02;-4.49;59.81
75466;HTU21D;64049;46.290;44.240;2022-11-15T17:38:30;-4.53;59.80
75466;HTU21D;64049;46.290;44.240;2022-11-15T17:41:13;-4.55;59.83
75466;HTU21D;64049;46.290;44.240;2022-11-15T17:43:40;-4.58;59.71
75466;HTU21D;64049;46.290;44.240;2022-11-15T17:46:09;-4.65;59.77
75466;HTU21D;64049;46.290;44.240;2022-11-15T17:48:35;-4.69;59.84
75466;HTU21D;64049;46.290;44.240;2022-11-15T17:51:04;-4.69;59.94
75466;HTU21D;64049;46.290;44.240;2022-11-15T17:53:35;-4.70;59.84
75466;HTU21D;64049;46.290;44.240;2022-11-15T17:56:09;-4.73;59.87
75466;HTU21D;64049;46.290;44.240;2022-11-15T17:58:36;-4.78;59.86
75466;HTU21D;64049;46.290;44.240;2022-11-15T18:01:21;-4.83;59.98
75466;HTU21D;64049;46.290;44.240;2022-11-15T18:03:48;-4.86;59.99
75466;HTU21D;64049;46.290;44.240;2022-11-15T18:06:15;-4.87;59.99
75466;HTU21D;64049;46.290;44.240;2022-11-15T18:08:42;-4.90;60.02
75466;HTU21D;64049;46.290;44.240;2022-11-15T18:11:14;-4.96;60.09
75466;HTU21D;64049;46.290;44.240;2022-11-15T18:13:43;-5.00;60.17
75466;HTU21D;64049;46.290;44.240;2022-11-15T18:16:13;-5.01;60.21
75466;HTU21D;64049;46.290;44.240;2022-11-15T18:18:40;-5.01;60.21
75466;HTU21D;64049;46.290;44.240;2022-11-15T18:21:14;-5.04;60.22
75466;HTU21D;64049;46.290;44.240;2022-11-15T18:23:41;-5.04;60.25
75466;HTU21D;64049;46.290;44.240;2022-11-15T18:26:10;-5.05;60.29
75466;HTU21D;64049;46.290;44.240;2022-11-15T18:28:37;-5.07;60.31
75466;HTU21D;64049;46.290;44.240;2022-11-15T18:31:20;-5.13;60.31
75466;HTU21D;64049;46.290;44.240;2022-11-15T18:33:47;-5.15;60.41
75466;HTU21D;64049;46.290;44.240;2022-11-15T18:36:18;-5.14;60.44
75466;HTU21D;64049;46.290;44.240;2022-11-15T18:38:44;-5.15;60.44
75466;HTU21D;64049;46.290;44.240;2022-11-15T18:41:16;-5.14;60.48
75466;HTU21D;64049;46.290;44.240;2022-11-15T18:43:44;-5.15;60.51
75466;HTU21D;64049;46.290;44.240;2022-11-15T18:46:12;-5.13;60.58
75466;HTU21D;64049;46.290;44.240;2022-11-15T18:48:40;-5.11;60.54
75466;HTU21D;64049;46.290;44.240;2022-11-15T18:51:12;-5.07;60.54
75466;HTU21D;64049;46.290;44.240;2022-11-15T18:53:39;-5.02;60.57
75466;HTU21D;64049;46.290;44.240;2022-11-15T18:56:09;-4.98;60.53
75466;HTU21D;64049;46.290;44.240;2022-11-15T18:58:37;-4.97;60.51
75466;HTU21D;64049;46.290;44.240;2022-11-15T19:01:06;-4.97;60.58
75466;HTU21D;64049;46.290;44.240;2022-11-15T19:03:36;-4.97;60.60
75466;HTU21D;64049;46.290;44.240;2022-11-15T19:06:03;-4.95;60.64
75466;HTU21D;64049;46.290;44.240;2022-11-15T19:08:29;-4.94;60.70
75466;HTU21D;64049;46.290;44.240;2022-11-15T19:10:55;-4.93;60.76
75466;HTU21D;64049;46.290;44.240;2022-11-15T19:13:21;-4.93;60.73
75466;HTU21D;64049;46.290;44.240;2022-11-15T19:15:47;-4.94;60.76
75466;HTU21D;64049;46.290;44.240;2022-11-15T19:18:13;-4.97;60.86
75466;HTU21D;64049;46.290;44.240;2022-11-15T19:20:39;-4.98;60.98
75466;HTU21D;64049;46.290;44.240;2022-11-15T19:23:05;-5.01;61.01
75466;HTU21D;64049;46.290;44.240;2022-11-15T19:25:31;-5.03;61.09
75466;HTU21D;64049;46.290;44.240;2022-11-15T19:27:57;-5.07;61.14
75466;HTU21D;64049;46.290;44.240;2022-11-15T19:30:23;-5.11;61.18
75466;HTU21D;64049;46.290;44.240;2022-11-15T19:32:49;-5.17;61.27
75466;HTU21D;64049;46.290;44.240;2022-11-15T19:35:15;-5.24;61.34
75466;HTU21D;64049;46.290;44.240;2022-11-15T19:37:41;-5.24;61.44
75466;HTU21D;64049;46.290;44.240;2022-11-15T19:40:09;-5.26;61.41
75466;HTU21D;64049;46.290;44.240;2022-11-15T19:45:41;-5.23;61.36
75466;HTU21D;64049;46.290;44.240;2022-11-15T19:48:07;-5.23;61.41
75466;HTU21D;64049;46.290;44.240;2022-11-15T19:50:36;-5.20;61.43
75466;HTU21D;64049;46.290;44.240;2022-11-15T19:53:01;-5.22;61.44
75466;HTU21D;64049;46.290;44.240;2022-11-15T19:55:27;-5.19;61.49
75466;HTU21D;64049;46.290;44.240;2022-11-15T19:57:53;-5.16;61.44
75466;HTU21D;64049;46.290;44.240;2022-11-15T20:00:19;-5.14;61.44
75466;HTU21D;64049;46.290;44.240;2022-11-15T20:02:45;-5.12;61.46
75466;HTU21D;64049;46.290;44.240;2022-11-15T20:05:11;-5.04;61.54
75466;HTU21D;64049;46.290;44.240;2022-11-15T20:07:37;-4.98;61.61
75466;HTU21D;64049;46.290;44.240;2022-11-15T20:22:07;-4.10;64.69